Time;durP1;ratioP1;P1;durP2;ratioP2;P2;SDS_P1;SDS_P2;PMS_P1;PMS_P2;Temp;Humidity;BMP_temperature;BMP_pressure;BME280_temperature;BME280_humidity;BME280_pressure;Samples;Min_cycle;Max_cycle;Signal;HPM_P1;HPM_P2
2021/08/02 00:02:50;;;;;;;11.50;8.50;;;16.70;99.90;;;;;;4951274;29;20487;-88
2021/08/02 00:05:22;;;;;;;9.32;8.35;;;16.80;99.90;;;;;;4936448;29;20051;-89
2021/08/02 00:08:00;;;;;;;8.93;7.97;;;16.80;99.90;;;;;;4951034;29;20050;-89
2021/08/02 00:10:34;;;;;;;8.48;7.50;;;16.80;99.90;;;;;;4953696;29;20082;-89
2021/08/02 00:13:25;;;;;;;8.60;7.00;;;16.80;99.90;;;;;;4951015;29;20027;-90
2021/08/02 00:15:53;;;;;;;9.10;7.05;;;16.80;99.90;;;;;;4949658;28;20058;-89
2021/08/02 00:18:19;;;;;;;8.32;7.53;;;16.80;99.90;;;;;;4948734;29;20543;-90
2021/08/02 00:20:45;;;;;;;9.25;8.27;;;16.80;99.90;;;;;;4950340;28;20110;-92
2021/08/02 00:23:11;;;;;;;9.27;7.25;;;16.80;99.90;;;;;;4949979;28;20024;-89
2021/08/02 00:25:37;;;;;;;12.80;8.68;;;16.80;99.90;;;;;;4952130;29;20031;-91
2021/08/02 00:28:04;;;;;;;8.95;8.07;;;16.80;99.90;;;;;;4949875;29;20039;-89
2021/08/02 00:30:31;;;;;;;11.15;7.40;;;16.70;99.90;;;;;;4950065;29;20035;-88
2021/08/02 00:32:57;;;;;;;8.93;8.02;;;16.70;99.90;;;;;;4876768;28;2155463;-88
2021/08/02 00:35:23;;;;;;;8.65;7.85;;;16.70;99.90;;;;;;4951652;29;20031;-90
2021/08/02 00:37:56;;;;;;;8.43;7.53;;;16.70;99.90;;;;;;4950894;29;20038;-89
2021/08/02 00:40:47;;;;;;;9.38;7.45;;;16.70;99.90;;;;;;4952310;29;20026;-89
2021/08/02 00:43:52;;;;;;;8.23;6.70;;;16.70;99.90;;;;;;4946559;29;20403;-90
2021/08/02 00:46:18;;;;;;;10.25;6.78;;;16.70;99.90;;;;;;4952164;29;20126;-89
2021/08/02 00:48:52;;;;;;;7.65;6.68;;;16.70;99.90;;;;;;4950863;29;20031;-89
2021/08/02 00:51:18;;;;;;;7.40;6.70;;;16.70;99.90;;;;;;4950246;28;20023;-87
2021/08/02 00:53:47;;;;;;;7.47;6.78;;;16.70;99.90;;;;;;4951823;29;20023;-88
2021/08/02 00:56:16;;;;;;;9.48;6.63;;;16.70;99.90;;;;;;4950728;29;20098;-89
2021/08/02 00:58:45;;;;;;;6.97;6.13;;;16.60;99.90;;;;;;4952257;28;20090;-87
2021/08/02 01:01:11;;;;;;;9.38;7.03;;;16.60;99.90;;;;;;4951205;29;20070;-88
2021/08/02 01:03:40;;;;;;;8.15;6.63;;;16.50;99.90;;;;;;4951868;29;20491;-88
2021/08/02 01:06:08;;;;;;;6.20;5.60;;;16.50;99.90;;;;;;4947627;29;20047;-89
2021/08/02 01:08:38;;;;;;;8.85;6.68;;;16.50;99.90;;;;;;4950947;29;20066;-90
2021/08/02 01:11:10;;;;;;;9.18;6.57;;;16.50;99.90;;;;;;4946143;29;20023;-88
2021/08/02 01:13:38;;;;;;;12.80;6.75;;;16.50;99.90;;;;;;4952441;28;20526;-89
2021/08/02 01:16:06;;;;;;;7.05;6.03;;;16.40;99.90;;;;;;4949734;29;20020;-89
2021/08/02 01:18:33;;;;;;;8.50;5.78;;;16.40;99.90;;;;;;4948633;29;20041;-88
2021/08/02 01:21:12;;;;;;;9.18;5.85;;;16.30;99.90;;;;;;4947506;29;20031;-90
2021/08/02 01:23:38;;;;;;;8.60;5.40;;;16.30;99.90;;;;;;4950681;29;20086;-89
2021/08/02 01:26:04;;;;;;;6.90;5.80;;;16.30;99.90;;;;;;4950427;29;20075;-90
2021/08/02 01:28:30;;;;;;;6.32;5.03;;;16.30;99.90;;;;;;4953530;28;20047;-89
2021/08/02 01:31:00;;;;;;;6.70;5.20;;;16.20;99.90;;;;;;4951337;28;20035;-90
2021/08/02 01:33:29;;;;;;;7.50;4.72;;;16.20;99.90;;;;;;4949684;28;20078;-90
2021/08/02 01:35:59;;;;;;;11.30;5.28;;;16.20;99.90;;;;;;4951732;29;20023;-89
2021/08/02 01:38:26;;;;;;;9.57;5.82;;;16.10;99.90;;;;;;4950524;29;20035;-90
2021/08/02 01:40:53;;;;;;;7.32;5.22;;;16.10;99.90;;;;;;4953016;28;20479;-89
2021/08/02 01:43:19;;;;;;;7.20;5.60;;;16.10;99.90;;;;;;4953583;29;20520;-90
2021/08/02 01:45:53;;;;;;;6.53;5.57;;;16.10;99.90;;;;;;4952231;29;20054;-90
2021/08/02 01:48:23;;;;;;;8.70;6.38;;;16.10;99.90;;;;;;4953180;29;20496;-90
2021/08/02 01:50:51;;;;;;;7.00;5.50;;;16.10;99.90;;;;;;4950871;28;20039;-90
2021/08/02 01:53:25;;;;;;;7.20;6.03;;;16.10;99.90;;;;;;4949463;29;20307;-90
2021/08/02 01:56:14;;;;;;;6.40;5.53;;;16.10;99.90;;;;;;4951512;28;20510;-88
2021/08/02 01:58:49;;;;;;;7.47;6.00;;;16.10;99.90;;;;;;4949902;29;20071;-90
2021/08/02 02:01:15;;;;;;;7.97;6.53;;;16.10;99.90;;;;;;4951847;29;20059;-89
2021/08/02 02:03:43;;;;;;;7.07;6.15;;;16.10;99.90;;;;;;4949795;29;20468;-90
2021/08/02 02:06:13;;;;;;;7.43;5.90;;;16.00;99.90;;;;;;4951918;29;20399;-92
2021/08/02 02:08:43;;;;;;;9.32;5.97;;;16.10;99.90;;;;;;4949721;29;20035;-90
2021/08/02 02:11:10;;;;;;;6.38;5.78;;;16.10;99.90;;;;;;4938255;29;20361;-90
2021/08/02 02:13:43;;;;;;;7.75;6.38;;;16.10;99.90;;;;;;4953236;28;20425;-90
2021/08/02 02:16:10;;;;;;;5.93;5.35;;;16.00;99.90;;;;;;4952458;29;20503;-90
2021/08/02 02:18:40;;;;;;;8.35;5.80;;;16.00;99.90;;;;;;4950191;29;20042;-90
2021/08/02 02:21:07;;;;;;;8.57;5.75;;;16.00;99.90;;;;;;4951376;29;20031;-89
2021/08/02 02:23:33;;;;;;;6.57;5.93;;;15.90;99.90;;;;;;4951379;29;20407;-89
2021/08/02 02:26:00;;;;;;;7.80;6.10;;;16.00;99.90;;;;;;4949867;28;20059;-90
2021/08/02 02:28:25;;;;;;;6.82;6.13;;;16.00;99.90;;;;;;4953459;28;20035;-91
2021/08/02 02:30:53;;;;;;;8.60;6.22;;;15.90;99.90;;;;;;4953175;29;20046;-89
2021/08/02 02:33:19;;;;;;;7.45;6.13;;;16.00;99.90;;;;;;4952745;28;20407;-90
2021/08/02 02:35:47;;;;;;;10.68;7.00;;;16.00;99.90;;;;;;4950383;29;20031;-90
2021/08/02 02:38:15;;;;;;;10.90;7.18;;;16.00;99.90;;;;;;4954425;29;20027;-90
2021/08/02 02:40:43;;;;;;;9.55;6.55;;;16.00;99.90;;;;;;4955311;29;20086;-92
2021/08/02 02:43:11;;;;;;;8.35;7.25;;;16.00;99.90;;;;;;4953861;29;20503;-91
2021/08/02 02:45:38;;;;;;;9.93;8.27;;;16.00;99.90;;;;;;4954394;29;20411;-90
2021/08/02 02:48:07;;;;;;;8.70;7.80;;;16.10;99.90;;;;;;4954102;29;20444;-91
2021/08/02 02:50:35;;;;;;;8.35;7.32;;;16.10;99.90;;;;;;4953213;29;20482;-90
2021/08/02 02:53:02;;;;;;;9.20;6.93;;;16.10;99.90;;;;;;4938172;29;20050;-90
2021/08/02 02:55:30;;;;;;;10.05;6.88;;;16.10;99.90;;;;;;4952504;29;20027;-91
2021/08/02 02:57:57;;;;;;;9.13;7.43;;;16.10;99.90;;;;;;4952290;28;20542;-90
2021/08/02 03:00:23;;;;;;;9.18;6.85;;;16.10;99.90;;;;;;4953999;29;20027;-89
2021/08/02 03:02:51;;;;;;;8.88;7.30;;;16.10;99.90;;;;;;4954141;29;20031;-89
2021/08/02 03:05:20;;;;;;;8.60;6.88;;;16.10;99.90;;;;;;4954367;28;20357;-90
2021/08/02 03:07:49;;;;;;;9.45;7.43;;;16.10;99.90;;;;;;4954738;29;20041;-90
2021/08/02 03:10:21;;;;;;;9.18;7.18;;;16.10;99.90;;;;;;4954205;29;20446;-89
2021/08/02 03:12:48;;;;;;;7.85;6.47;;;16.10;99.90;;;;;;4953220;29;20142;-90
2021/08/02 03:15:14;;;;;;;9.90;7.47;;;16.10;99.90;;;;;;4952947;28;20053;-91
2021/08/02 03:17:40;;;;;;;7.90;7.13;;;16.10;99.90;;;;;;4954178;28;20050;-91
2021/08/02 03:20:06;;;;;;;8.00;6.93;;;16.20;99.90;;;;;;4952027;29;20098;-90
2021/08/02 03:22:41;;;;;;;10.02;6.88;;;16.10;99.90;;;;;;4954771;29;20077;-90
2021/08/02 03:25:17;;;;;;;10.82;8.02;;;16.20;99.90;;;;;;4954728;29;20027;-91
2021/08/02 03:28:02;;;;;;;9.68;6.88;;;16.10;99.90;;;;;;4953726;29;20458;-90
2021/08/02 03:30:30;;;;;;;9.18;7.22;;;16.20;99.90;;;;;;4953176;29;20042;-89
2021/08/02 03:33:01;;;;;;;10.70;7.97;;;16.10;99.90;;;;;;4954311;28;20094;-89
2021/08/02 03:35:29;;;;;;;11.30;7.22;;;16.10;99.90;;;;;;4951942;29;20031;-89
2021/08/02 03:37:55;;;;;;;11.65;7.75;;;16.10;99.90;;;;;;4954910;28;20035;-90
2021/08/02 03:40:21;;;;;;;10.43;7.38;;;16.10;99.90;;;;;;4955555;28;20034;-89
2021/08/02 03:42:48;;;;;;;8.43;7.15;;;16.10;99.90;;;;;;4952234;29;20031;-90
2021/08/02 03:45:16;;;;;;;10.10;7.15;;;16.10;99.90;;;;;;4951723;29;20085;-88
2021/08/02 03:47:42;;;;;;;9.43;6.97;;;16.10;99.90;;;;;;4951964;28;20502;-89
2021/08/02 03:50:10;;;;;;;11.43;7.35;;;16.10;99.90;;;;;;4953018;29;20038;-89
2021/08/02 03:52:36;;;;;;;9.75;7.15;;;16.10;99.90;;;;;;4954520;28;20035;-90
2021/08/02 03:55:03;;;;;;;8.15;6.57;;;16.10;99.90;;;;;;4947770;29;20027;-91
2021/08/02 03:57:31;;;;;;;8.52;6.88;;;16.10;99.90;;;;;;4953386;28;20501;-89
2021/08/02 03:59:57;;;;;;;7.55;6.20;;;16.10;99.90;;;;;;4952570;29;20164;-89
2021/08/02 04:02:22;;;;;;;7.72;6.70;;;16.10;99.90;;;;;;4950124;29;20035;-90
2021/08/02 04:04:48;;;;;;;9.43;7.50;;;16.20;99.90;;;;;;4952618;29;20364;-90
2021/08/02 04:07:14;;;;;;;7.45;6.55;;;16.20;99.90;;;;;;4952707;29;20031;-90
2021/08/02 04:09:40;;;;;;;8.35;6.65;;;16.20;99.90;;;;;;4953076;29;20031;-91
2021/08/02 04:12:08;;;;;;;9.23;7.25;;;16.20;99.90;;;;;;4953340;28;20631;-89
2021/08/02 04:14:35;;;;;;;7.95;6.53;;;16.20;99.90;;;;;;4948815;29;20444;-90
2021/08/02 04:17:00;;;;;;;6.80;6.10;;;16.20;99.90;;;;;;4951280;29;20111;-89
2021/08/02 04:19:26;;;;;;;7.88;5.70;;;16.20;99.90;;;;;;4954999;29;20110;-88
2021/08/02 04:21:52;;;;;;;6.68;5.38;;;16.20;99.90;;;;;;4951635;29;20118;-89
2021/08/02 04:24:17;;;;;;;10.07;6.18;;;16.20;99.90;;;;;;4952511;29;20114;-89
2021/08/02 04:26:43;;;;;;;6.05;5.45;;;16.20;99.90;;;;;;4950722;29;20062;-90
2021/08/02 04:29:09;;;;;;;7.85;5.70;;;16.20;99.90;;;;;;4950961;28;20118;-88
2021/08/02 04:31:34;;;;;;;7.03;6.05;;;16.30;99.90;;;;;;4954131;29;20058;-89
2021/08/02 04:34:00;;;;;;;6.80;6.10;;;16.30;99.90;;;;;;4951381;28;20122;-89
2021/08/02 04:36:26;;;;;;;7.38;6.13;;;16.30;99.90;;;;;;4950446;29;20031;-88
2021/08/02 04:38:52;;;;;;;6.93;5.53;;;16.30;99.90;;;;;;4950415;29;20023;-89
2021/08/02 04:41:18;;;;;;;6.00;5.40;;;16.30;99.90;;;;;;4951149;28;20035;-89
2021/08/02 04:43:44;;;;;;;6.07;5.25;;;16.30;99.90;;;;;;4952688;28;20064;-90
2021/08/02 04:46:09;;;;;;;6.00;4.90;;;16.30;99.90;;;;;;4966551;28;20031;-91
2021/08/02 04:48:35;;;;;;;6.90;5.25;;;16.30;99.90;;;;;;4952537;29;20066;-90
2021/08/02 04:51:01;;;;;;;7.35;5.03;;;16.40;99.90;;;;;;4953423;28;20030;-89
2021/08/02 04:53:26;;;;;;;5.43;4.47;;;16.40;99.90;;;;;;4952104;29;20131;-90
2021/08/02 04:55:52;;;;;;;7.70;4.57;;;16.50;99.90;;;;;;4951219;29;20020;-89
2021/08/02 04:58:18;;;;;;;5.45;4.93;;;16.50;99.90;;;;;;4952136;29;20109;-88
2021/08/02 05:00:44;;;;;;;8.15;4.55;;;16.60;99.90;;;;;;4953309;28;20139;-89
2021/08/02 05:03:10;;;;;;;5.65;4.50;;;16.60;99.90;;;;;;4951843;29;20035;-89
2021/08/02 05:05:36;;;;;;;4.95;4.45;;;16.60;99.90;;;;;;4952668;28;20058;-89
2021/08/02 05:08:01;;;;;;;9.63;4.78;;;16.70;99.90;;;;;;4935171;29;20032;-90
2021/08/02 05:10:27;;;;;;;5.05;4.50;;;16.70;99.90;;;;;;4953701;29;20165;-88
2021/08/02 05:12:53;;;;;;;7.35;4.82;;;16.70;99.90;;;;;;4950506;28;20035;-88
2021/08/02 05:15:19;;;;;;;8.55;6.07;;;16.80;99.90;;;;;;4951121;29;20538;-88
2021/08/02 05:17:45;;;;;;;13.35;5.63;;;16.80;99.90;;;;;;4950337;29;20027;-89
2021/08/02 05:20:11;;;;;;;8.90;6.65;;;16.90;99.90;;;;;;4949184;28;20032;-89
2021/08/02 05:22:37;;;;;;;8.80;7.47;;;17.00;99.90;;;;;;4950051;29;20035;-90
2021/08/02 05:25:03;;;;;;;8.85;7.95;;;17.00;99.90;;;;;;4935083;29;20467;-91
2021/08/02 05:27:30;;;;;;;9.25;8.45;;;17.10;99.90;;;;;;4947960;28;20407;-90
2021/08/02 05:29:56;;;;;;;12.25;10.10;;;17.20;99.90;;;;;;4950428;29;20090;-89
2021/08/02 05:32:21;;;;;;;14.18;11.75;;;17.20;99.90;;;;;;4950544;28;20443;-91
2021/08/02 05:34:47;;;;;;;15.43;13.98;;;17.30;99.90;;;;;;4952938;29;20522;-89
2021/08/02 05:37:13;;;;;;;17.92;13.25;;;17.30;99.90;;;;;;4953639;29;20038;-89
2021/08/02 05:39:40;;;;;;;17.98;16.23;;;17.40;99.90;;;;;;4952414;29;20039;-91
2021/08/02 05:42:06;;;;;;;20.20;18.05;;;17.50;99.90;;;;;;4952319;29;20019;-90
2021/08/02 05:44:32;;;;;;;20.48;18.45;;;17.60;99.90;;;;;;4954115;28;20100;-90
2021/08/02 05:46:58;;;;;;;23.35;20.95;;;17.60;99.90;;;;;;4953797;29;20034;-89
2021/08/02 05:49:24;;;;;;;24.58;20.65;;;17.70;99.90;;;;;;4953143;29;20034;-90
2021/08/02 05:51:51;;;;;;;25.90;23.20;;;17.70;99.90;;;;;;4951950;29;20097;-90
2021/08/02 05:54:17;;;;;;;26.73;23.20;;;17.70;99.90;;;;;;4949942;29;20035;-91
2021/08/02 05:56:43;;;;;;;26.08;23.63;;;17.70;99.90;;;;;;4952363;28;20042;-89
2021/08/02 05:59:09;;;;;;;29.88;25.88;;;17.70;99.90;;;;;;4952847;29;20038;-91
2021/08/02 06:01:34;;;;;;;29.77;26.88;;;17.70;99.90;;;;;;4953660;28;20487;-91
2021/08/02 06:04:00;;;;;;;29.67;26.77;;;17.60;99.90;;;;;;4956085;28;20055;-90
2021/08/02 06:06:25;;;;;;;31.25;28.15;;;17.60;99.90;;;;;;4957180;29;20034;-91
2021/08/02 06:08:51;;;;;;;32.42;29.05;;;17.60;99.90;;;;;;4957516;29;20032;-90
2021/08/02 06:11:18;;;;;;;34.85;31.27;;;17.50;99.90;;;;;;4956090;28;20035;-91
2021/08/02 06:13:44;;;;;;;31.08;27.90;;;17.60;99.90;;;;;;4957796;29;20024;-92
2021/08/02 06:16:10;;;;;;;30.30;27.23;;;17.60;99.90;;;;;;4967654;29;20403;-90
2021/08/02 06:18:35;;;;;;;26.95;24.23;;;17.60;99.90;;;;;;4966147;29;20035;-89
2021/08/02 06:21:01;;;;;;;25.55;21.58;;;17.50;99.90;;;;;;4954039;28;20438;-90
2021/08/02 06:23:27;;;;;;;23.00;20.63;;;17.50;99.90;;;;;;4954359;29;20023;-91
2021/08/02 06:25:52;;;;;;;22.77;20.55;;;17.60;99.90;;;;;;4937316;29;20035;-90
2021/08/02 06:28:18;;;;;;;21.27;19.08;;;17.60;99.90;;;;;;4959562;28;20027;-91
2021/08/02 06:30:44;;;;;;;22.50;19.52;;;17.50;99.90;;;;;;4958369;28;20042;-90
2021/08/02 06:33:10;;;;;;;22.15;18.88;;;17.50;99.90;;;;;;4956095;28;20059;-91
2021/08/02 06:35:36;;;;;;;21.05;18.27;;;17.50;99.90;;;;;;4960229;28;20122;-89
2021/08/02 06:38:03;;;;;;;19.92;17.38;;;17.60;99.90;;;;;;4938003;29;20090;-91
2021/08/02 06:40:29;;;;;;;18.58;16.77;;;17.60;99.90;;;;;;4951463;29;20027;-91
2021/08/02 06:42:54;;;;;;;16.70;15.10;;;17.60;99.90;;;;;;4955888;28;20031;-91
2021/08/02 06:45:20;;;;;;;16.67;14.90;;;17.60;99.90;;;;;;4951757;28;20041;-90
2021/08/02 06:47:47;;;;;;;27.42;15.95;;;17.60;99.90;;;;;;4953718;28;20525;-90
2021/08/02 06:50:12;;;;;;;16.05;14.30;;;17.70;99.90;;;;;;4955145;28;20024;-90
2021/08/02 06:52:38;;;;;;;15.55;13.88;;;17.70;99.90;;;;;;4953889;29;20027;-90
2021/08/02 06:55:04;;;;;;;15.50;13.95;;;17.80;99.90;;;;;;4952417;29;20031;-90
2021/08/02 06:57:30;;;;;;;17.90;15.10;;;17.80;99.90;;;;;;4954953;28;20040;-88
2021/08/02 06:59:57;;;;;;;15.98;14.30;;;17.90;99.90;;;;;;4953913;29;20037;-89
2021/08/02 07:02:23;;;;;;;15.43;14.02;;;17.90;99.90;;;;;;4954727;29;20091;-89
2021/08/02 07:04:49;;;;;;;17.77;15.82;;;17.90;99.90;;;;;;4958080;28;20035;-89
2021/08/02 07:07:15;;;;;;;16.85;15.27;;;18.00;99.90;;;;;;4958558;29;20094;-88
2021/08/02 07:09:40;;;;;;;17.00;15.20;;;18.10;99.90;;;;;;4952408;29;20038;-87
2021/08/02 07:12:07;;;;;;;18.08;16.33;;;18.20;99.90;;;;;;4953016;28;20023;-89
2021/08/02 07:14:32;;;;;;;18.92;16.98;;;18.20;99.90;;;;;;4953386;28;20031;-89
2021/08/02 07:16:58;;;;;;;19.00;17.05;;;18.30;99.90;;;;;;4944708;28;20086;-90
2021/08/02 07:19:24;;;;;;;19.95;18.00;;;18.40;99.90;;;;;;4952054;29;20043;-88
2021/08/02 07:21:49;;;;;;;20.50;18.40;;;18.40;99.90;;;;;;4950800;29;20044;-88
2021/08/02 07:24:15;;;;;;;22.23;18.13;;;18.50;99.90;;;;;;4951772;28;20022;-88
2021/08/02 07:26:41;;;;;;;20.23;17.90;;;18.60;99.90;;;;;;4953800;28;20502;-90
2021/08/02 07:29:07;;;;;;;19.23;17.35;;;18.90;99.90;;;;;;4950890;28;20019;-88
2021/08/02 07:31:32;;;;;;;18.75;16.85;;;19.00;99.90;;;;;;4950413;29;20082;-87
2021/08/02 07:33:58;;;;;;;19.35;16.80;;;19.20;99.90;;;;;;4950713;28;20047;-88
2021/08/02 07:36:24;;;;;;;19.67;15.90;;;19.20;99.90;;;;;;4951741;28;20047;-88
2021/08/02 07:38:49;;;;;;;17.67;16.05;;;19.10;99.90;;;;;;4952092;29;20046;-88
2021/08/02 07:41:15;;;;;;;18.52;16.65;;;19.10;99.90;;;;;;4950717;29;20026;-88
2021/08/02 07:43:41;;;;;;;17.83;15.82;;;19.00;99.90;;;;;;4950558;29;20042;-88
2021/08/02 07:46:07;;;;;;;18.50;14.77;;;19.00;99.90;;;;;;4952327;28;20078;-88
2021/08/02 07:48:33;;;;;;;16.02;14.20;;;19.00;99.90;;;;;;4953014;28;20035;-87
2021/08/02 07:50:58;;;;;;;17.73;13.82;;;19.00;99.90;;;;;;4953651;28;20075;-87
2021/08/02 07:53:24;;;;;;;14.68;13.20;;;18.90;99.90;;;;;;4951928;28;20039;-88
2021/08/02 07:55:50;;;;;;;13.57;12.35;;;18.90;99.90;;;;;;4950951;29;20043;-88
2021/08/02 07:58:16;;;;;;;15.57;13.95;;;19.00;99.90;;;;;;4953489;28;20047;-89
2021/08/02 08:00:42;;;;;;;16.80;12.93;;;19.00;99.90;;;;;;4950899;29;20077;-88
2021/08/02 08:03:08;;;;;;;12.93;11.80;;;19.00;99.90;;;;;;4952917;28;20027;-88
2021/08/02 08:05:33;;;;;;;14.00;12.63;;;19.00;99.90;;;;;;4954343;28;20055;-87
2021/08/02 08:07:59;;;;;;;13.85;12.13;;;19.00;99.90;;;;;;4952349;28;20581;-89
2021/08/02 08:10:26;;;;;;;12.80;11.50;;;19.10;99.90;;;;;;4952840;29;20034;-88
2021/08/02 08:12:53;;;;;;;16.30;11.88;;;19.30;99.90;;;;;;4949395;28;20038;-89
2021/08/02 08:15:21;;;;;;;13.05;11.70;;;19.20;99.90;;;;;;4951880;28;20038;-89
2021/08/02 08:17:47;;;;;;;14.30;12.23;;;19.30;99.90;;;;;;4951591;28;20023;-88
2021/08/02 08:20:15;;;;;;;14.05;11.50;;;19.40;99.90;;;;;;4951105;28;20020;-89
2021/08/02 08:22:41;;;;;;;16.58;11.90;;;19.40;99.90;;;;;;4954128;28;20034;-87
2021/08/02 08:25:08;;;;;;;11.82;10.73;;;19.50;99.90;;;;;;4952578;28;20483;-87
2021/08/02 08:27:34;;;;;;;12.23;11.15;;;19.50;99.90;;;;;;4946885;29;20059;-90
2021/08/02 08:29:59;;;;;;;12.05;10.88;;;19.50;99.90;;;;;;4952478;28;20458;-88
2021/08/02 08:32:25;;;;;;;13.27;10.60;;;19.60;99.90;;;;;;4951371;28;21842;-90
2021/08/02 08:34:51;;;;;;;12.05;10.85;;;19.50;99.90;;;;;;4950039;29;20126;-90
2021/08/02 08:37:17;;;;;;;13.75;11.55;;;19.50;99.90;;;;;;4951258;29;20027;-90
2021/08/02 08:39:43;;;;;;;12.23;10.95;;;19.60;99.90;;;;;;4949171;28;20074;-89
2021/08/02 08:42:09;;;;;;;12.25;11.05;;;19.70;99.90;;;;;;4951389;28;20470;-90
2021/08/02 08:44:35;;;;;;;11.73;10.52;;;19.80;99.90;;;;;;4957070;28;20451;-89
2021/08/02 08:47:01;;;;;;;10.98;9.98;;;19.80;99.90;;;;;;4952192;28;20122;-89
2021/08/02 08:49:27;;;;;;;14.13;10.93;;;20.00;99.90;;;;;;4954700;29;20031;-89
2021/08/02 08:51:53;;;;;;;11.60;10.40;;;20.00;99.90;;;;;;4947630;29;20038;-89
2021/08/02 08:54:19;;;;;;;12.85;11.15;;;20.10;99.90;;;;;;4964678;28;20035;-90
2021/08/02 08:56:45;;;;;;;11.50;10.40;;;20.10;99.90;;;;;;4962723;28;20085;-89
2021/08/02 08:59:14;;;;;;;11.07;9.93;;;20.10;99.90;;;;;;4950455;29;20065;-89
2021/08/02 09:01:40;;;;;;;12.20;10.98;;;20.10;99.90;;;;;;4953715;28;20419;-88
2021/08/02 09:04:06;;;;;;;10.85;9.85;;;20.00;99.90;;;;;;4954595;28;20384;-91
2021/08/02 09:06:52;;;;;;;13.05;9.95;;;20.10;99.90;;;;;;4948017;29;20035;-89
2021/08/02 09:09:29;;;;;;;9.93;8.93;;;20.00;99.90;;;;;;4950915;28;20510;-89
2021/08/02 09:12:19;;;;;;;13.57;9.80;;;20.00;99.90;;;;;;4945129;29;20023;-89
2021/08/02 09:14:55;;;;;;;10.82;9.48;;;20.10;99.90;;;;;;4947902;29;20545;-89
2021/08/02 09:17:29;;;;;;;10.40;9.40;;;20.00;99.90;;;;;;4952460;28;20031;-89
2021/08/02 09:19:55;;;;;;;12.13;9.38;;;20.10;99.90;;;;;;4953808;28;21014;-88
2021/08/02 09:22:35;;;;;;;9.90;8.32;;;20.00;99.90;;;;;;4953660;29;20023;-88
2021/08/02 09:25:15;;;;;;;13.45;8.90;;;19.90;99.90;;;;;;4950274;29;20042;-85
2021/08/02 09:27:42;;;;;;;12.68;8.73;;;19.90;99.90;;;;;;4951715;29;20770;-90
2021/08/02 09:30:22;;;;;;;9.07;8.18;;;20.00;99.90;;;;;;4955313;28;20035;-90
2021/08/02 09:32:55;;;;;;;9.52;8.57;;;20.10;99.90;;;;;;4949650;29;20090;-89
2021/08/02 09:35:30;;;;;;;10.10;7.75;;;20.20;99.90;;;;;;4962284;28;20031;-89
2021/08/02 09:37:58;;;;;;;11.45;7.20;;;20.30;99.90;;;;;;4953136;28;20602;-89
2021/08/02 09:40:24;;;;;;;8.98;7.65;;;20.50;99.90;;;;;;4956883;29;20035;-90
2021/08/02 09:42:57;;;;;;;7.32;6.30;;;20.70;99.90;;;;;;4941891;28;20035;-90
2021/08/02 09:45:23;;;;;;;8.15;6.43;;;20.90;99.90;;;;;;4952413;29;20016;-90
2021/08/02 09:47:50;;;;;;;6.78;6.10;;;21.10;99.90;;;;;;4954669;28;20415;-90
2021/08/02 09:50:31;;;;;;;7.13;5.57;;;21.10;99.90;;;;;;4957243;29;20027;-88
2021/08/02 09:52:58;;;;;;;6.28;5.78;;;21.20;99.90;;;;;;4966965;28;20110;-90
2021/08/02 09:55:24;;;;;;;8.07;5.90;;;21.30;99.90;;;;;;4960186;28;20027;-90
2021/08/02 09:57:55;;;;;;;7.18;5.13;;;21.40;99.90;;;;;;4939585;29;20063;-89
2021/08/02 10:00:21;;;;;;;8.73;5.20;;;21.50;99.90;;;;;;4947309;29;20104;-90
2021/08/02 10:02:50;;;;;;;5.43;4.93;;;21.30;99.90;;;;;;4957043;28;20054;-89
2021/08/02 10:05:17;;;;;;;5.47;4.97;;;21.40;99.90;;;;;;4954085;29;20472;-89
2021/08/02 10:07:45;;;;;;;5.00;4.40;;;21.40;99.90;;;;;;4959489;28;20042;-92
2021/08/02 10:10:15;;;;;;;5.50;5.00;;;21.30;99.90;;;;;;4961120;28;20073;-88
2021/08/02 10:12:47;;;;;;;7.97;4.72;;;21.40;99.90;;;;;;4955575;29;20035;-89
2021/08/02 10:15:30;;;;;;;5.15;4.25;;;21.50;99.90;;;;;;4949346;29;20475;-90
2021/08/02 10:18:00;;;;;;;5.20;3.85;;;21.40;99.90;;;;;;4948088;28;20564;-88
2021/08/02 10:20:31;;;;;;;5.50;3.70;;;21.50;99.90;;;;;;4957330;28;20035;-90
2021/08/02 10:22:59;;;;;;;5.53;3.90;;;21.50;99.90;;;;;;4954729;29;20030;-90
2021/08/02 10:25:38;;;;;;;4.20;3.72;;;21.60;99.90;;;;;;4957625;28;20031;-89
2021/08/02 10:28:14;;;;;;;6.47;3.78;;;21.70;99.90;;;;;;4954232;29;20036;-89
2021/08/02 10:30:42;;;;;;;4.35;3.22;;;21.80;99.90;;;;;;4953723;28;20047;-89
2021/08/02 10:33:09;;;;;;;4.70;3.53;;;22.00;99.90;;;;;;4956537;28;20059;-89
2021/08/02 10:35:44;;;;;;;4.43;3.85;;;22.10;99.90;;;;;;4955634;29;20038;-90
2021/08/02 10:38:16;;;;;;;5.03;4.25;;;22.10;99.90;;;;;;4949273;28;20043;-89
2021/08/02 10:40:47;;;;;;;5.50;3.67;;;22.20;99.90;;;;;;4965224;28;20486;-90
2021/08/02 10:43:24;;;;;;;4.65;3.40;;;22.30;99.90;;;;;;4954239;28;20019;-90
2021/08/02 10:45:51;;;;;;;4.18;3.30;;;22.40;99.90;;;;;;4955712;28;20035;-88
2021/08/02 10:48:29;;;;;;;5.43;2.95;;;22.40;99.90;;;;;;4956275;28;20035;-89
2021/08/02 10:50:55;;;;;;;4.78;2.60;;;22.40;99.90;;;;;;4954158;28;20491;-91
2021/08/02 10:53:21;;;;;;;4.18;2.40;;;22.40;99.90;;;;;;4954757;28;20027;-88
2021/08/02 10:55:52;;;;;;;5.40;2.78;;;22.40;99.90;;;;;;4954104;28;20026;-88
2021/08/02 10:58:42;;;;;;;4.53;3.40;;;22.50;99.90;;;;;;4961755;28;20043;-89
2021/08/02 11:01:13;;;;;;;6.15;3.38;;;22.30;99.90;;;;;;4936391;29;20882;-90
2021/08/02 11:03:42;;;;;;;5.30;3.00;;;22.30;99.90;;;;;;4952858;29;20026;-90
2021/08/02 11:06:13;;;;;;;4.60;3.30;;;22.40;99.90;;;;;;4956191;28;20110;-90
2021/08/02 11:08:47;;;;;;;4.15;2.78;;;22.40;99.90;;;;;;4955897;28;20069;-91
2021/08/02 11:11:23;;;;;;;3.28;2.80;;;22.40;99.90;;;;;;4953284;28;20047;-90
2021/08/02 11:13:51;;;;;;;3.95;3.03;;;22.40;99.90;;;;;;4943341;28;20030;-90
2021/08/02 11:16:17;;;;;;;3.83;2.47;;;22.50;99.90;;;;;;4953106;29;20050;-90
2021/08/02 11:18:45;;;;;;;4.47;2.45;;;22.80;99.90;;;;;;4954403;29;20023;-91
2021/08/02 11:21:25;;;;;;;4.72;2.78;;;22.90;99.90;;;;;;4956010;28;20039;-91
2021/08/02 11:23:54;;;;;;;3.67;2.63;;;22.80;99.90;;;;;;4948167;29;20039;-91
2021/08/02 11:26:22;;;;;;;3.55;2.28;;;22.90;99.90;;;;;;4954449;29;20062;-91
2021/08/02 11:28:49;;;;;;;6.03;2.92;;;23.10;99.90;;;;;;4953116;29;20035;-90
2021/08/02 11:31:16;;;;;;;6.63;2.83;;;22.90;99.90;;;;;;4956139;29;20039;-89
2021/08/02 11:33:44;;;;;;;2.63;2.42;;;22.70;99.90;;;;;;4965860;28;20043;-90
2021/08/02 11:36:18;;;;;;;2.63;2.42;;;22.50;99.90;;;;;;4954374;29;20038;-91
2021/08/02 11:38:44;;;;;;;4.40;2.20;;;22.20;99.90;;;;;;4954786;29;20086;-90
2021/08/02 11:41:10;;;;;;;4.20;2.50;;;22.20;99.90;;;;;;4954073;28;20035;-89
2021/08/02 11:43:45;;;;;;;3.15;2.40;;;22.00;99.90;;;;;;4954127;29;20165;-88
2021/08/02 11:46:12;;;;;;;3.45;2.53;;;22.00;99.90;;;;;;4954098;29;20027;-90
2021/08/02 11:48:42;;;;;;;2.92;2.10;;;22.10;99.90;;;;;;4954175;29;20043;-93
2021/08/02 11:51:10;;;;;;;3.58;1.90;;;22.10;99.90;;;;;;4933432;28;20027;-92
2021/08/02 11:53:36;;;;;;;3.85;2.05;;;22.20;99.90;;;;;;4952553;29;20016;-89
2021/08/02 11:56:05;;;;;;;4.55;1.85;;;22.40;99.90;;;;;;4956111;28;20077;-90
2021/08/02 11:58:57;;;;;;;1.80;1.65;;;22.50;99.90;;;;;;4949084;28;20046;-89
2021/08/02 12:01:23;;;;;;;3.60;1.60;;;22.70;99.90;;;;;;4947238;28;20032;-91
2021/08/02 12:03:55;;;;;;;5.03;1.40;;;22.90;99.90;;;;;;4959637;28;20042;-90
2021/08/02 12:06:20;;;;;;;4.32;1.60;;;23.10;99.90;;;;;;4952289;28;20028;-90
2021/08/02 12:08:52;;;;;;;2.75;1.42;;;23.30;99.90;;;;;;4949533;29;20035;-91
2021/08/02 12:11:18;;;;;;;2.53;1.42;;;23.20;99.90;;;;;;4949492;28;20590;-89
2021/08/02 12:13:47;;;;;;;3.42;1.35;;;23.10;99.90;;;;;;4948501;28;20082;-91
2021/08/02 12:16:30;;;;;;;2.22;1.23;;;23.10;99.90;;;;;;4966009;28;20023;-92
2021/08/02 12:19:10;;;;;;;3.00;1.98;;;23.00;99.90;;;;;;4952241;29;20026;-90
2021/08/02 12:21:38;;;;;;;3.22;1.10;;;23.00;99.90;;;;;;4950318;29;20067;-91
2021/08/02 12:24:08;;;;;;;2.47;1.30;;;22.90;99.90;;;;;;4951119;28;20035;-91
2021/08/02 12:26:51;;;;;;;4.25;1.73;;;22.90;99.90;;;;;;4950658;28;20062;-91
2021/08/02 12:29:34;;;;;;;4.07;1.55;;;22.70;99.90;;;;;;4947827;29;20031;-89
2021/08/02 12:32:04;;;;;;;1.92;1.48;;;22.70;99.90;;;;;;4949795;28;20035;-92
2021/08/02 12:34:30;;;;;;;1.52;1.10;;;22.80;99.90;;;;;;4949465;29;20027;-91
2021/08/02 12:36:58;;;;;;;2.08;1.40;;;22.80;99.90;;;;;;4950097;29;20896;-91
2021/08/02 12:39:27;;;;;;;2.65;1.30;;;22.80;99.90;;;;;;4951302;29;20042;-90
2021/08/02 12:41:53;;;;;;;4.43;1.45;;;22.80;99.90;;;;;;4951568;29;20031;-91
2021/08/02 12:44:19;;;;;;;3.28;1.10;;;22.70;99.90;;;;;;4961464;28;20035;-92
2021/08/02 12:46:44;;;;;;;4.88;1.52;;;22.80;99.90;;;;;;4954696;29;20081;-91
2021/08/02 12:49:10;;;;;;;2.65;1.38;;;22.70;99.90;;;;;;4951867;29;20491;-89